Time;durP1;ratioP1;P1;durP2;ratioP2;P2;SDS_P1;SDS_P2;PMS_P1;PMS_P2;Temp;Humidity;BMP_temperature;BMP_pressure;BME280_temperature;BME280_humidity;BME280_pressure;Samples;Min_cycle;Max_cycle;Signal;HPM_P1;HPM_P2
2024/03/13 00:00:16;;;;;;;18.88;11.45;;;;;;;;;;5045530;28;20025;-48
2024/03/13 00:02:41;;;;;;;15.35;10.85;;;;;;;;;;5046751;28;20381;-51
2024/03/13 00:05:09;;;;;;;16.90;11.25;;;;;;;;;;5049054;28;20025;-46
2024/03/13 00:07:35;;;;;;;18.63;11.57;;;;;;;;;;5055032;28;20049;-47
2024/03/13 00:10:01;;;;;;;18.55;11.40;;;;;;;;;;5048489;28;20086;-48
2024/03/13 00:12:28;;;;;;;15.90;10.88;;;;;;;;;;5046579;28;20037;-49
2024/03/13 00:14:53;;;;;;;20.20;11.82;;;;;;;;;;5046351;28;20570;-49
2024/03/13 00:17:21;;;;;;;20.30;12.95;;;;;;;;;;5046653;28;20048;-51
2024/03/13 00:19:47;;;;;;;20.08;12.45;;;;;;;;;;5057638;28;20036;-48
2024/03/13 00:22:14;;;;;;;19.30;12.75;;;;;;;;;;5046091;28;20099;-47
2024/03/13 00:24:39;;;;;;;18.42;12.25;;;;;;;;;;5045177;28;20024;-50
2024/03/13 00:27:04;;;;;;;22.55;13.50;;;;;;;;;;5066580;28;20040;-49
2024/03/13 00:29:30;;;;;;;20.73;12.45;;;;;;;;;;5066126;28;20351;-49
2024/03/13 00:31:55;;;;;;;21.85;13.63;;;;;;;;;;5045339;28;20489;-50
2024/03/13 00:34:20;;;;;;;20.60;13.88;;;;;;;;;;5066148;28;20067;-52
2024/03/13 00:36:46;;;;;;;20.55;13.70;;;;;;;;;;5063790;28;20426;-49
2024/03/13 00:39:12;;;;;;;22.55;13.65;;;;;;;;;;5052483;28;20021;-46
2024/03/13 00:41:38;;;;;;;21.65;15.05;;;;;;;;;;5010663;28;20033;-49
2024/03/13 00:44:05;;;;;;;22.77;13.25;;;;;;;;;;5045353;28;20017;-49
2024/03/13 00:46:30;;;;;;;21.90;14.20;;;;;;;;;;5060554;28;20032;-48
2024/03/13 00:48:56;;;;;;;21.65;13.88;;;;;;;;;;5065970;28;20028;-49
2024/03/13 00:51:22;;;;;;;22.80;14.25;;;;;;;;;;5064013;28;20021;-49
2024/03/13 00:53:48;;;;;;;21.33;13.63;;;;;;;;;;5062268;28;20446;-49
2024/03/13 00:56:15;;;;;;;21.42;13.25;;;;;;;;;;5040569;28;20696;-51
2024/03/13 00:58:41;;;;;;;26.10;14.82;;;;;;;;;;5065547;28;20032;-50
2024/03/13 01:01:06;;;;;;;23.83;15.30;;;;;;;;;;5028052;28;20449;-49
2024/03/13 01:03:31;;;;;;;22.20;13.38;;;;;;;;;;5065204;28;20424;-52
2024/03/13 01:05:56;;;;;;;26.25;14.80;;;;;;;;;;5056050;28;20049;-51
2024/03/13 01:08:24;;;;;;;25.48;14.10;;;;;;;;;;5044480;28;20033;-48
2024/03/13 01:10:52;;;;;;;23.98;15.43;;;;;;;;;;5045318;28;20370;-49
2024/03/13 01:13:19;;;;;;;23.00;14.30;;;;;;;;;;5045308;28;21122;-51
2024/03/13 01:15:44;;;;;;;27.55;16.08;;;;;;;;;;5048941;28;20029;-50
2024/03/13 01:18:10;;;;;;;25.08;15.93;;;;;;;;;;5045064;28;20465;-50
2024/03/13 01:20:35;;;;;;;24.77;15.35;;;;;;;;;;5044928;28;20013;-49
2024/03/13 01:23:00;;;;;;;20.90;13.82;;;;;;;;;;5045376;28;20571;-49
2024/03/13 01:25:25;;;;;;;23.02;14.07;;;;;;;;;;5050285;28;20568;-52
2024/03/13 01:27:51;;;;;;;22.58;14.45;;;;;;;;;;5050675;28;20040;-51
2024/03/13 01:30:17;;;;;;;23.65;15.05;;;;;;;;;;5047441;28;20636;-50
2024/03/13 01:32:43;;;;;;;23.98;15.60;;;;;;;;;;5045279;28;20036;-52
2024/03/13 01:35:10;;;;;;;24.50;15.27;;;;;;;;;;5047906;28;20100;-49
2024/03/13 01:40:23;;;;;;;28.60;15.23;;;;;;;;;;5049443;28;20027;-49
2024/03/13 01:56:58;;;;;;;30.45;15.65;;;;;;;;;;5062941;28;20040;-49
2024/03/13 01:59:31;;;;;;;28.42;16.23;;;;;;;;;;5064126;28;20393;-51
2024/03/13 02:04:40;;;;;;;24.83;15.23;;;;;;;;;;5062571;28;20023;-51
2024/03/13 02:07:06;;;;;;;28.02;14.90;;;;;;;;;;5046309;28;20057;-51
2024/03/13 02:09:31;;;;;;;23.35;13.88;;;;;;;;;;5043402;28;20512;-47
2024/03/13 02:11:56;;;;;;;25.50;15.45;;;;;;;;;;5062277;28;20488;-48
2024/03/13 02:14:22;;;;;;;25.50;14.23;;;;;;;;;;5064454;28;20017;-51
2024/03/13 02:16:52;;;;;;;25.58;14.93;;;;;;;;;;5026910;28;20063;-53
2024/03/13 02:19:18;;;;;;;23.73;15.40;;;;;;;;;;5028369;28;20036;-49
2024/03/13 02:21:45;;;;;;;26.13;15.55;;;;;;;;;;5062183;28;20095;-49
2024/03/13 02:24:10;;;;;;;26.95;15.55;;;;;;;;;;5064092;28;20090;-48
2024/03/13 02:26:40;;;;;;;25.63;14.65;;;;;;;;;;5046691;28;20037;-48
2024/03/13 02:29:05;;;;;;;22.92;15.45;;;;;;;;;;5050079;28;20053;-49
2024/03/13 02:31:31;;;;;;;25.08;14.07;;;;;;;;;;5058715;28;20025;-50
2024/03/13 02:33:56;;;;;;;22.77;14.40;;;;;;;;;;5027794;28;20552;-51
2024/03/13 02:36:21;;;;;;;27.65;15.73;;;;;;;;;;5061388;28;20031;-50
2024/03/13 02:38:49;;;;;;;22.73;13.98;;;;;;;;;;5063438;28;20028;-50
2024/03/13 02:41:14;;;;;;;25.77;14.68;;;;;;;;;;5050153;28;20021;-50
2024/03/13 02:43:41;;;;;;;24.58;15.45;;;;;;;;;;5043686;28;20024;-50
2024/03/13 02:46:08;;;;;;;25.70;15.15;;;;;;;;;;5053794;28;20064;-50
2024/03/13 02:48:33;;;;;;;22.70;13.90;;;;;;;;;;5044172;28;20476;-49
2024/03/13 02:50:58;;;;;;;24.35;14.70;;;;;;;;;;5061580;28;20020;-51
2024/03/13 02:53:24;;;;;;;25.80;14.20;;;;;;;;;;5063448;28;20213;-52
2024/03/13 02:55:49;;;;;;;24.45;15.02;;;;;;;;;;5052496;28;20444;-51
2024/03/13 02:58:14;;;;;;;22.50;14.15;;;;;;;;;;5043175;28;20025;-52
2024/03/13 03:00:40;;;;;;;21.70;14.05;;;;;;;;;;5043273;28;20025;-50
2024/03/13 03:03:11;;;;;;;24.27;15.07;;;;;;;;;;5043494;28;20357;-52
2024/03/13 03:05:36;;;;;;;25.77;14.95;;;;;;;;;;5013994;28;20031;-51
2024/03/13 03:08:03;;;;;;;25.30;15.27;;;;;;;;;;5049729;28;20036;-51
2024/03/13 03:10:29;;;;;;;26.95;15.38;;;;;;;;;;5048441;28;20365;-46
2024/03/13 03:12:54;;;;;;;24.80;14.70;;;;;;;;;;5063352;28;20021;-49
2024/03/13 03:15:19;;;;;;;22.35;14.27;;;;;;;;;;5060104;28;20496;-50
2024/03/13 03:17:47;;;;;;;25.35;15.55;;;;;;;;;;5043074;28;20032;-48
2024/03/13 03:20:12;;;;;;;24.77;14.05;;;;;;;;;;5046865;28;20040;-48
2024/03/13 03:22:37;;;;;;;26.27;14.52;;;;;;;;;;5063096;28;20048;-48
2024/03/13 03:25:03;;;;;;;23.90;14.95;;;;;;;;;;5065078;28;20025;-51
2024/03/13 03:27:29;;;;;;;24.27;14.13;;;;;;;;;;5058243;28;20037;-49
2024/03/13 03:29:55;;;;;;;22.55;14.70;;;;;;;;;;5046793;28;20028;-51
2024/03/13 03:32:20;;;;;;;21.55;13.38;;;;;;;;;;5046858;28;20062;-49
2024/03/13 03:34:46;;;;;;;26.90;15.25;;;;;;;;;;5047016;28;20053;-49
2024/03/13 03:37:13;;;;;;;23.50;14.57;;;;;;;;;;5067225;28;20381;-47
2024/03/13 03:39:39;;;;;;;25.33;15.38;;;;;;;;;;5065035;28;20024;-48
2024/03/13 03:42:05;;;;;;;24.65;14.95;;;;;;;;;;5066935;28;20021;-48
2024/03/13 03:44:30;;;;;;;23.52;13.95;;;;;;;;;;5048853;28;20477;-53
2024/03/13 03:46:55;;;;;;;27.60;16.15;;;;;;;;;;5064555;28;20040;-49
2024/03/13 03:49:22;;;;;;;25.55;14.88;;;;;;;;;;5054003;28;20108;-48
2024/03/13 03:51:48;;;;;;;26.23;15.13;;;;;;;;;;5028392;28;20036;-49
2024/03/13 03:54:13;;;;;;;23.67;14.07;;;;;;;;;;5030743;28;20060;-49
2024/03/13 03:56:38;;;;;;;24.65;14.23;;;;;;;;;;5064469;28;20476;-50
2024/03/13 03:59:07;;;;;;;24.83;14.13;;;;;;;;;;5066527;28;20029;-47
2024/03/13 04:01:33;;;;;;;24.42;15.25;;;;;;;;;;5064425;28;20107;-48
2024/03/13 04:03:59;;;;;;;26.42;13.90;;;;;;;;;;5066114;28;20111;-48
2024/03/13 04:06:25;;;;;;;22.85;14.48;;;;;;;;;;5063698;28;20063;-52
2024/03/13 04:08:50;;;;;;;23.60;13.55;;;;;;;;;;5057165;28;20120;-47
2024/03/13 04:11:16;;;;;;;22.75;13.82;;;;;;;;;;5058769;28;20020;-47
2024/03/13 04:13:41;;;;;;;23.70;14.75;;;;;;;;;;5066128;28;20048;-49
2024/03/13 04:16:10;;;;;;;24.90;14.23;;;;;;;;;;5060464;28;20093;-47
2024/03/13 04:18:35;;;;;;;23.75;14.85;;;;;;;;;;5066286;28;20032;-50
2024/03/13 04:21:01;;;;;;;26.50;15.25;;;;;;;;;;5064068;28;20048;-49
2024/03/13 04:23:26;;;;;;;24.30;14.35;;;;;;;;;;5066515;28;20020;-46
2024/03/13 04:25:55;;;;;;;26.13;14.90;;;;;;;;;;5058641;28;20040;-49
2024/03/13 04:28:20;;;;;;;26.07;14.70;;;;;;;;;;5065939;28;20023;-52
2024/03/13 04:30:46;;;;;;;26.17;15.00;;;;;;;;;;5046960;28;20040;-48
2024/03/13 04:33:11;;;;;;;26.10;14.20;;;;;;;;;;5066124;28;20024;-47
2024/03/13 04:35:37;;;;;;;27.70;14.35;;;;;;;;;;5056667;28;20531;-49
2024/03/13 04:38:03;;;;;;;23.55;14.73;;;;;;;;;;5046167;28;20094;-49
2024/03/13 04:40:28;;;;;;;23.30;14.55;;;;;;;;;;5047489;28;20049;-50
2024/03/13 04:42:53;;;;;;;23.83;14.57;;;;;;;;;;5044597;28;20064;-51
2024/03/13 04:45:18;;;;;;;26.60;13.88;;;;;;;;;;5044326;28;20027;-48
2024/03/13 04:47:44;;;;;;;23.67;14.30;;;;;;;;;;5045760;28;20043;-47
2024/03/13 04:50:09;;;;;;;27.98;15.07;;;;;;;;;;4993956;28;20045;-52
2024/03/13 04:52:34;;;;;;;25.77;14.23;;;;;;;;;;5045868;28;20025;-46
2024/03/13 04:55:00;;;;;;;23.08;13.18;;;;;;;;;;5047515;28;20028;-46
2024/03/13 04:57:25;;;;;;;26.25;14.40;;;;;;;;;;5049811;28;20469;-52
2024/03/13 04:59:50;;;;;;;23.13;13.98;;;;;;;;;;5045393;28;20024;-50
2024/03/13 05:02:16;;;;;;;23.00;14.02;;;;;;;;;;5045187;28;20052;-48
2024/03/13 05:04:44;;;;;;;23.15;14.27;;;;;;;;;;5047675;28;20389;-49
2024/03/13 05:07:12;;;;;;;21.27;13.03;;;;;;;;;;5044528;28;20049;-47
2024/03/13 05:09:37;;;;;;;26.15;14.20;;;;;;;;;;5043552;28;20494;-48
2024/03/13 05:12:05;;;;;;;23.60;12.95;;;;;;;;;;5064844;28;20023;-50
2024/03/13 05:14:31;;;;;;;27.73;13.98;;;;;;;;;;5062396;28;20478;-48
2024/03/13 05:16:56;;;;;;;22.17;12.98;;;;;;;;;;5045003;28;20025;-48
2024/03/13 05:19:22;;;;;;;22.42;13.60;;;;;;;;;;5045001;28;20021;-49
2024/03/13 05:21:48;;;;;;;21.20;13.45;;;;;;;;;;5047537;28;20328;-50
2024/03/13 05:24:16;;;;;;;24.02;13.77;;;;;;;;;;5044723;28;20103;-47
2024/03/13 05:26:44;;;;;;;21.30;13.40;;;;;;;;;;5060844;28;20028;-50
2024/03/13 05:29:09;;;;;;;22.38;12.90;;;;;;;;;;5064896;28;20020;-46
2024/03/13 05:31:35;;;;;;;21.63;12.50;;;;;;;;;;5058438;28;20028;-49
2024/03/13 05:34:00;;;;;;;22.30;13.50;;;;;;;;;;5044855;28;20067;-51
2024/03/13 05:36:25;;;;;;;22.30;13.18;;;;;;;;;;5044740;28;20035;-52
2024/03/13 05:38:51;;;;;;;24.60;13.20;;;;;;;;;;5044108;28;20035;-49
2024/03/13 05:41:16;;;;;;;25.75;13.45;;;;;;;;;;5052983;28;20467;-48
2024/03/13 05:43:42;;;;;;;25.25;13.45;;;;;;;;;;5043992;28;20048;-50
2024/03/13 05:46:07;;;;;;;23.85;13.65;;;;;;;;;;5043357;28;20024;-47
2024/03/13 05:48:32;;;;;;;22.70;13.80;;;;;;;;;;5044327;28;20036;-49
2024/03/13 05:50:58;;;;;;;22.08;12.93;;;;;;;;;;5045232;28;20540;-50
2024/03/13 05:53:23;;;;;;;23.35;14.27;;;;;;;;;;5044701;28;20098;-48
2024/03/13 05:55:48;;;;;;;22.25;13.38;;;;;;;;;;5052945;28;20021;-50
2024/03/13 05:58:14;;;;;;;22.25;12.93;;;;;;;;;;5064215;28;20388;-47
2024/03/13 06:00:41;;;;;;;24.25;13.82;;;;;;;;;;5062133;28;20021;-51
2024/03/13 06:03:06;;;;;;;21.00;13.30;;;;;;;;;;5012990;28;20385;-51
2024/03/13 06:05:32;;;;;;;23.40;13.90;;;;;;;;;;5056004;28;20075;-51
2024/03/13 06:07:58;;;;;;;27.50;13.80;;;;;;;;;;5002151;28;20060;-52
2024/03/13 06:10:24;;;;;;;21.35;12.93;;;;;;;;;;5046508;28;20033;-50
2024/03/13 06:12:50;;;;;;;25.55;13.90;;;;;;;;;;5042709;28;20170;-47
2024/03/13 06:15:15;;;;;;;21.48;13.40;;;;;;;;;;5045588;28;20132;-50
2024/03/13 06:17:40;;;;;;;27.63;14.20;;;;;;;;;;5043843;28;20486;-51
2024/03/13 06:20:11;;;;;;;22.05;12.82;;;;;;;;;;5049574;28;20052;-50
2024/03/13 06:22:37;;;;;;;24.67;13.40;;;;;;;;;;5064181;28;20035;-53
2024/03/13 06:25:06;;;;;;;22.73;13.00;;;;;;;;;;5059948;28;20032;-46
2024/03/13 06:27:31;;;;;;;;;;;;;;;;;;5064532;28;20123;-50
2024/03/13 06:29:57;;;;;;;24.50;12.27;;;;;;;;;;5058493;28;20000;-49
2024/03/13 06:32:23;;;;;;;22.52;12.30;;;;;;;;;;5043711;28;20016;-50
2024/03/13 06:34:48;;;;;;;24.75;12.82;;;;;;;;;;5044311;28;20489;-50
2024/03/13 06:37:14;;;;;;;25.05;13.00;;;;;;;;;;5054824;28;20079;-48
2024/03/13 06:39:41;;;;;;;23.90;13.00;;;;;;;;;;5042270;28;20525;-51
2024/03/13 06:42:06;;;;;;;24.33;13.35;;;;;;;;;;5052529;28;20027;-46
2024/03/13 06:44:31;;;;;;;26.45;14.00;;;;;;;;;;5057085;28;20021;-52
2024/03/13 06:46:57;;;;;;;23.80;13.32;;;;;;;;;;5056491;28;20025;-50
2024/03/13 06:49:22;;;;;;;29.65;14.85;;;;;;;;;;5043412;28;20028;-51
2024/03/13 06:51:47;;;;;;;22.10;13.82;;;;;;;;;;5060466;28;20524;-51
2024/03/13 06:54:12;;;;;;;23.15;13.73;;;;;;;;;;5051235;28;20021;-48
2024/03/13 06:56:38;;;;;;;26.05;13.35;;;;;;;;;;5041656;28;20029;-49
2024/03/13 06:59:03;;;;;;;19.98;11.95;;;;;;;;;;5047984;28;20028;-46
2024/03/13 07:01:29;;;;;;;22.75;13.60;;;;;;;;;;5041846;28;20043;-50
2024/03/13 07:03:55;;;;;;;24.02;13.52;;;;;;;;;;5044847;28;20431;-48
2024/03/13 07:06:20;;;;;;;22.95;13.38;;;;;;;;;;5053023;28;20094;-49
2024/03/13 07:08:46;;;;;;;20.88;13.27;;;;;;;;;;5034173;28;20053;-50
2024/03/13 07:11:14;;;;;;;22.60;13.70;;;;;;;;;;5043653;28;20024;-47
2024/03/13 07:13:39;;;;;;;22.67;13.50;;;;;;;;;;5017980;28;20485;-47
2024/03/13 07:16:06;;;;;;;24.33;13.25;;;;;;;;;;5041455;28;20032;-49
2024/03/13 07:18:34;;;;;;;21.58;12.23;;;;;;;;;;5003859;28;20072;-48
2024/03/13 07:20:59;;;;;;;21.55;13.05;;;;;;;;;;5030500;28;20055;-48
2024/03/13 07:23:25;;;;;;;19.60;11.93;;;;;;;;;;5043122;28;20029;-50
2024/03/13 07:25:53;;;;;;;21.50;13.68;;;;;;;;;;5048951;28;20032;-49
2024/03/13 07:28:18;;;;;;;21.00;11.85;;;;;;;;;;5051361;28;20575;-49
2024/03/13 07:30:44;;;;;;;20.65;12.52;;;;;;;;;;5045150;28;20017;-53
2024/03/13 07:33:11;;;;;;;19.05;9.88;;;;;;;;;;5049185;28;20025;-47
2024/03/13 07:35:38;;;;;;;18.65;9.90;;;;;;;;;;5052904;28;20021;-51
2024/03/13 07:38:03;;;;;;;16.60;10.15;;;;;;;;;;5051232;28;20029;-47
2024/03/13 07:40:31;;;;;;;17.42;10.07;;;;;;;;;;5045052;28;20555;-47
2024/03/13 07:42:57;;;;;;;15.48;9.55;;;;;;;;;;5042993;28;20021;-49
2024/03/13 07:45:22;;;;;;;16.75;10.00;;;;;;;;;;5048463;28;20468;-47
2024/03/13 07:47:49;;;;;;;14.85;8.82;;;;;;;;;;5045642;28;20028;-48
2024/03/13 07:50:14;;;;;;;14.18;9.38;;;;;;;;;;5056944;28;20025;-50
2024/03/13 07:52:40;;;;;;;15.57;10.13;;;;;;;;;;5054259;28;20061;-48
2024/03/13 07:55:05;;;;;;;16.20;9.75;;;;;;;;;;5046243;28;20040;-45
2024/03/13 07:57:30;;;;;;;18.10;9.80;;;;;;;;;;5051704;28;20017;-49
2024/03/13 07:59:56;;;;;;;11.20;8.00;;;;;;;;;;5040316;28;20058;-46
2024/03/13 08:02:21;;;;;;;15.25;9.13;;;;;;;;;;5040997;28;20028;-46
2024/03/13 08:04:47;;;;;;;13.35;9.18;;;;;;;;;;5046641;28;20493;-48
2024/03/13 08:07:12;;;;;;;15.20;9.77;;;;;;;;;;5049583;28;20055;-47
2024/03/13 08:09:37;;;;;;;14.00;9.23;;;;;;;;;;5049314;28;20116;-49
2024/03/13 08:12:03;;;;;;;15.77;9.10;;;;;;;;;;5053865;28;20131;-48
2024/03/13 08:14:28;;;;;;;12.65;8.32;;;;;;;;;;5026975;28;20102;-47
2024/03/13 08:16:53;;;;;;;18.35;8.88;;;;;;;;;;5042120;28;20033;-50
2024/03/13 08:19:19;;;;;;;18.92;10.27;;;;;;;;;;5047946;28;20024;-48
2024/03/13 08:21:44;;;;;;;13.68;8.50;;;;;;;;;;5032962;28;20036;-47
2024/03/13 08:24:09;;;;;;;17.17;9.32;;;;;;;;;;5044878;28;20029;-51
2024/03/13 08:26:35;;;;;;;15.93;9.43;;;;;;;;;;5045527;28;20445;-48
2024/03/13 08:29:00;;;;;;;15.20;8.57;;;;;;;;;;5043776;28;20028;-50
2024/03/13 08:31:26;;;;;;;14.18;8.60;;;;;;;;;;5054214;28;20253;-47
2024/03/13 08:33:56;;;;;;;15.35;8.75;;;;;;;;;;5053931;28;20044;-48
2024/03/13 08:36:22;;;;;;;15.18;9.65;;;;;;;;;;5063406;28;20040;-52
2024/03/13 08:38:47;;;;;;;14.15;8.90;;;;;;;;;;5065216;28;20586;-46
2024/03/13 08:41:13;;;;;;;14.88;8.45;;;;;;;;;;5057981;28;20409;-45
2024/03/13 08:43:38;;;;;;;13.68;8.02;;;;;;;;;;5065711;28;20029;-50
2024/03/13 08:46:03;;;;;;;13.02;7.95;;;;;;;;;;5049530;28;20031;-49
2024/03/13 08:48:29;;;;;;;12.77;8.15;;;;;;;;;;5058532;28;20025;-50
2024/03/13 08:50:57;;;;;;;11.52;7.78;;;;;;;;;;5050974;28;20437;-51
2024/03/13 08:53:23;;;;;;;12.88;7.53;;;;;;;;;;5044201;28;20025;-49
2024/03/13 08:55:48;;;;;;;14.65;8.00;;;;;;;;;;5043125;28;20148;-49
2024/03/13 08:58:13;;;;;;;12.65;7.85;;;;;;;;;;5048986;28;20095;-47
2024/03/13 09:00:38;;;;;;;9.77;7.18;;;;;;;;;;5049773;28;20481;-51
2024/03/13 09:03:04;;;;;;;11.23;7.10;;;;;;;;;;5051170;28;20089;-48
2024/03/13 09:05:32;;;;;;;10.18;7.28;;;;;;;;;;5045665;28;20029;-46
2024/03/13 09:07:57;;;;;;;9.77;6.80;;;;;;;;;;5044083;28;20045;-47
2024/03/13 09:10:22;;;;;;;12.00;7.50;;;;;;;;;;5052701;28;20032;-50
2024/03/13 09:12:48;;;;;;;10.30;7.15;;;;;;;;;;5045171;28;20086;-49
2024/03/13 09:15:14;;;;;;;12.45;6.35;;;;;;;;;;5044272;28;20029;-44
2024/03/13 09:17:39;;;;;;;10.48;7.40;;;;;;;;;;5046469;28;20024;-51
2024/03/13 09:20:05;;;;;;;9.57;6.70;;;;;;;;;;5048250;28;20020;-51
2024/03/13 09:22:30;;;;;;;9.50;6.47;;;;;;;;;;4991887;28;20033;-48
2024/03/13 09:24:55;;;;;;;10.80;6.97;;;;;;;;;;5053079;28;20032;-51
2024/03/13 09:27:21;;;;;;;9.35;6.45;;;;;;;;;;5050634;28;20037;-49
2024/03/13 09:29:47;;;;;;;8.57;6.03;;;;;;;;;;5052921;28;20055;-47
2024/03/13 09:32:13;;;;;;;10.95;6.75;;;;;;;;;;5050736;28;20305;-49
2024/03/13 09:34:38;;;;;;;12.43;6.60;;;;;;;;;;5051017;28;20707;-48
2024/03/13 09:37:07;;;;;;;9.68;6.47;;;;;;;;;;5043640;28;20464;-50
2024/03/13 09:39:33;;;;;;;8.57;6.35;;;;;;;;;;5045649;28;20356;-48
2024/03/13 09:41:59;;;;;;;12.38;6.32;;;;;;;;;;5052703;28;20113;-50
2024/03/13 09:44:29;;;;;;;9.90;6.30;;;;;;;;;;5049005;28;21078;-50
2024/03/13 09:46:55;;;;;;;10.55;5.85;;;;;;;;;;5040915;28;20033;-53
2024/03/13 09:49:25;;;;;;;15.93;9.23;;;;;;;;;;5044886;28;20103;-48
2024/03/13 09:51:51;;;;;;;10.90;6.72;;;;;;;;;;5049483;28;20021;-51
2024/03/13 09:54:19;;;;;;;11.93;7.90;;;;;;;;;;5054744;28;20024;-50
2024/03/13 09:56:45;;;;;;;14.00;8.43;;;;;;;;;;5051494;28;20293;-47
2024/03/13 09:59:10;;;;;;;11.77;7.72;;;;;;;;;;5050160;28;20037;-47
2024/03/13 10:01:42;;;;;;;11.23;7.43;;;;;;;;;;5055422;28;20465;-48
2024/03/13 10:04:11;;;;;;;12.73;8.32;;;;;;;;;;5052438;28;20536;-51
2024/03/13 10:06:38;;;;;;;14.70;8.18;;;;;;;;;;5045762;28;20082;-46
2024/03/13 10:09:11;;;;;;;13.98;7.05;;;;;;;;;;5040889;28;20886;-51
2024/03/13 10:11:37;;;;;;;13.15;8.25;;;;;;;;;;5047718;28;20746;-49
2024/03/13 10:14:03;;;;;;;15.85;7.20;;;;;;;;;;5042322;28;20775;-50
2024/03/13 10:16:33;;;;;;;13.27;8.38;;;;;;;;;;5046315;28;20453;-52
2024/03/13 10:18:58;;;;;;;10.45;7.18;;;;;;;;;;5051097;28;20028;-52
2024/03/13 10:21:27;;;;;;;11.23;6.93;;;;;;;;;;5049607;28;20025;-54
2024/03/13 10:23:54;;;;;;;11.68;7.95;;;;;;;;;;5047346;28;20055;-50
2024/03/13 10:26:21;;;;;;;13.35;8.10;;;;;;;;;;5047611;28;20071;-47
2024/03/13 10:28:50;;;;;;;10.55;7.15;;;;;;;;;;5045266;28;20043;-52
2024/03/13 10:31:18;;;;;;;11.70;7.90;;;;;;;;;;5042185;28;20465;-51
2024/03/13 10:33:44;;;;;;;12.27;6.63;;;;;;;;;;5042631;28;20106;-50
2024/03/13 10:36:11;;;;;;;14.20;7.60;;;;;;;;;;5052956;28;20458;-47
2024/03/13 10:38:37;;;;;;;12.23;8.02;;;;;;;;;;5044177;28;20037;-49
2024/03/13 10:41:02;;;;;;;11.55;7.82;;;;;;;;;;5021881;28;20033;-49
2024/03/13 10:43:28;;;;;;;13.25;7.80;;;;;;;;;;5057749;28;20083;-51
2024/03/13 10:45:53;;;;;;;12.38;8.27;;;;;;;;;;5041888;28;20101;-50
2024/03/13 10:48:20;;;;;;;14.52;8.18;;;;;;;;;;5050920;28;20493;-48
2024/03/13 10:50:46;;;;;;;14.80;7.63;;;;;;;;;;5056714;28;20356;-48
2024/03/13 10:53:11;;;;;;;17.27;8.07;;;;;;;;;;5059460;28;20029;-52
2024/03/13 10:55:37;;;;;;;13.20;8.30;;;;;;;;;;5051663;28;20406;-46
2024/03/13 10:58:03;;;;;;;11.88;8.20;;;;;;;;;;5056125;28;20336;-48
2024/03/13 11:00:31;;;;;;;12.93;8.18;;;;;;;;;;5032866;28;20027;-49
2024/03/13 11:02:57;;;;;;;14.23;9.73;;;;;;;;;;5043442;28;20086;-51
2024/03/13 11:05:24;;;;;;;13.93;9.32;;;;;;;;;;5046914;28;20023;-49
2024/03/13 11:07:52;;;;;;;14.52;9.15;;;;;;;;;;5035550;28;20041;-49
2024/03/13 11:10:24;;;;;;;13.80;9.02;;;;;;;;;;5054281;28;20033;-48
2024/03/13 11:12:51;;;;;;;13.40;8.57;;;;;;;;;;5052028;28;20021;-48
2024/03/13 11:15:37;;;;;;;16.35;8.85;;;;;;;;;;5044788;28;20029;-48
2024/03/13 11:18:09;;;;;;;13.68;8.45;;;;;;;;;;5046479;28;20119;-46
2024/03/13 11:20:41;;;;;;;11.90;8.20;;;;;;;;;;5044178;28;20017;-48
2024/03/13 11:23:12;;;;;;;13.15;8.23;;;;;;;;;;5056108;28;20021;-52
2024/03/13 11:25:38;;;;;;;15.18;8.18;;;;;;;;;;5049527;28;20077;-46
2024/03/13 11:28:06;;;;;;;11.20;7.55;;;;;;;;;;5042699;28;20029;-48
2024/03/13 11:30:34;;;;;;;16.40;9.07;;;;;;;;;;5044046;28;20114;-48
2024/03/13 11:32:59;;;;;;;13.55;7.82;;;;;;;;;;5055053;28;20016;-46
2024/03/13 11:35:26;;;;;;;11.55;7.22;;;;;;;;;;5053313;28;20055;-48
2024/03/13 11:37:53;;;;;;;10.90;7.25;;;;;;;;;;5051624;28;20389;-47
2024/03/13 11:40:20;;;;;;;17.08;9.20;;;;;;;;;;5052688;28;20041;-50
2024/03/13 11:42:46;;;;;;;10.02;6.78;;;;;;;;;;5042463;28;20021;-46
2024/03/13 11:45:16;;;;;;;14.00;8.07;;;;;;;;;;5047202;28;20048;-51
2024/03/13 11:47:45;;;;;;;15.38;7.55;;;;;;;;;;5049016;28;20048;-51
2024/03/13 11:50:11;;;;;;;13.70;8.10;;;;;;;;;;5052830;28;20511;-48
2024/03/13 11:52:37;;;;;;;12.43;7.80;;;;;;;;;;5057324;28;20086;-50
2024/03/13 11:55:04;;;;;;;11.73;7.47;;;;;;;;;;5060790;28;20440;-48
2024/03/13 11:57:29;;;;;;;13.65;8.25;;;;;;;;;;5012316;28;20036;-48
2024/03/13 11:59:56;;;;;;;15.65;8.85;;;;;;;;;;5055842;28;20028;-48
2024/03/13 12:02:27;;;;;;;12.10;7.30;;;;;;;;;;5055022;28;20032;-46
2024/03/13 12:04:52;;;;;;;12.43;7.82;;;;;;;;;;5051419;28;20481;-48
2024/03/13 12:07:17;;;;;;;12.95;7.70;;;;;;;;;;5053952;28;20049;-49
2024/03/13 12:09:43;;;;;;;11.32;7.47;;;;;;;;;;5052008;28;20021;-51
2024/03/13 12:12:12;;;;;;;14.02;8.10;;;;;;;;;;5050497;28;20028;-50
2024/03/13 12:14:38;;;;;;;11.00;7.30;;;;;;;;;;5053744;28;20473;-50
2024/03/13 12:17:05;;;;;;;12.68;8.57;;;;;;;;;;5051322;28;20098;-51
2024/03/13 12:19:30;;;;;;;11.73;8.10;;;;;;;;;;5052053;28;20017;-49
2024/03/13 12:21:57;;;;;;;15.55;7.72;;;;;;;;;;5056363;28;20587;-52
2024/03/13 12:24:23;;;;;;;12.63;7.88;;;;;;;;;;5050141;28;20010;-50
2024/03/13 12:26:51;;;;;;;11.88;7.10;;;;;;;;;;5048795;28;20037;-48
2024/03/13 12:29:16;;;;;;;14.20;6.90;;;;;;;;;;5051486;28;20029;-48
2024/03/13 12:31:42;;;;;;;8.98;6.32;;;;;;;;;;5051786;28;20016;-49
2024/03/13 12:34:10;;;;;;;10.73;6.88;;;;;;;;;;5048228;28;20461;-48
2024/03/13 12:36:43;;;;;;;12.70;6.60;;;;;;;;;;5031886;28;20023;-49
2024/03/13 12:39:10;;;;;;;8.85;6.15;;;;;;;;;;5050001;28;20020;-48
2024/03/13 12:41:35;;;;;;;13.52;8.23;;;;;;;;;;5054257;28;20032;-50
2024/03/13 12:44:03;;;;;;;13.40;7.63;;;;;;;;;;5055558;28;20064;-48
2024/03/13 12:46:29;;;;;;;12.43;7.05;;;;;;;;;;5050885;28;20029;-50
2024/03/13 12:48:55;;;;;;;14.32;7.78;;;;;;;;;;5042994;28;20032;-51
2024/03/13 12:51:20;;;;;;;11.90;7.20;;;;;;;;;;5051307;28;20515;-47
2024/03/13 12:53:46;;;;;;;12.82;6.75;;;;;;;;;;5049327;28;20302;-48
2024/03/13 12:56:11;;;;;;;11.10;6.70;;;;;;;;;;5058158;28;20478;-49
2024/03/13 12:58:36;;;;;;;11.05;6.72;;;;;;;;;;5050381;28;20288;-50
2024/03/13 13:01:02;;;;;;;12.02;7.93;;;;;;;;;;5046544;28;20500;-51
2024/03/13 13:03:28;;;;;;;11.77;7.28;;;;;;;;;;5025656;28;20024;-51
2024/03/13 13:05:53;;;;;;;11.68;7.60;;;;;;;;;;5050516;28;20032;-50
2024/03/13 13:08:21;;;;;;;12.57;7.40;;;;;;;;;;5047579;28;20056;-49
2024/03/13 13:10:49;;;;;;;12.38;7.50;;;;;;;;;;5046304;28;20025;-51
2024/03/13 13:13:15;;;;;;;11.18;7.45;;;;;;;;;;5040728;28;20045;-50
2024/03/13 13:15:41;;;;;;;12.25;8.07;;;;;;;;;;5039603;28;20539;-50
2024/03/13 13:18:07;;;;;;;12.60;7.75;;;;;;;;;;5047479;28;20025;-46
2024/03/13 13:20:33;;;;;;;61.33;9.35;;;;;;;;;;5045835;28;20047;-46
2024/03/13 13:22:58;;;;;;;16.48;7.78;;;;;;;;;;5048208;28;20491;-50
2024/03/13 13:25:26;;;;;;;10.68;7.00;;;;;;;;;;5048494;28;20025;-48
2024/03/13 13:27:54;;;;;;;14.35;8.32;;;;;;;;;;5051362;28;20024;-49
2024/03/13 13:30:19;;;;;;;11.80;7.30;;;;;;;;;;5059469;28;20036;-49
2024/03/13 13:32:45;;;;;;;14.77;8.55;;;;;;;;;;5055988;28;20021;-50
2024/03/13 13:35:11;;;;;;;13.10;8.35;;;;;;;;;;5050247;28;20020;-49
2024/03/13 13:37:43;;;;;;;14.32;8.27;;;;;;;;;;5047083;28;20502;-50
2024/03/13 13:40:12;;;;;;;14.98;8.57;;;;;;;;;;5048833;28;20026;-52
2024/03/13 13:42:40;;;;;;;19.45;8.88;;;;;;;;;;5055117;28;20025;-49
2024/03/13 13:45:06;;;;;;;15.73;8.00;;;;;;;;;;5053149;28;20039;-47
2024/03/13 13:47:32;;;;;;;12.52;8.85;;;;;;;;;;5008979;28;20037;-48
2024/03/13 13:49:57;;;;;;;19.02;10.77;;;;;;;;;;5050767;28;20029;-48
2024/03/13 13:52:23;;;;;;;21.48;11.45;;;;;;;;;;5045858;28;20391;-49
2024/03/13 13:54:49;;;;;;;15.20;9.57;;;;;;;;;;5046091;28;20044;-49
2024/03/13 13:57:15;;;;;;;18.60;10.85;;;;;;;;;;5044432;28;20021;-50
2024/03/13 13:59:42;;;;;;;25.13;13.52;;;;;;;;;;5023055;28;20029;-48
2024/03/13 14:02:11;;;;;;;18.92;9.90;;;;;;;;;;5051997;28;20019;-50
2024/03/13 14:04:36;;;;;;;23.00;14.02;;;;;;;;;;5045323;28;20029;-47
2024/03/13 14:07:02;;;;;;;21.25;11.02;;;;;;;;;;5038290;28;20512;-50
2024/03/13 14:09:29;;;;;;;19.95;9.90;;;;;;;;;;5047488;28;20329;-50
2024/03/13 14:11:54;;;;;;;17.67;11.07;;;;;;;;;;5041063;28;20021;-50
2024/03/13 14:14:20;;;;;;;28.88;13.38;;;;;;;;;;5039549;28;20028;-48
2024/03/13 14:16:45;;;;;;;18.90;12.50;;;;;;;;;;5043625;28;20033;-48
2024/03/13 14:19:14;;;;;;;16.80;10.10;;;;;;;;;;5043182;28;20059;-49
2024/03/13 14:21:40;;;;;;;18.45;9.45;;;;;;;;;;5059606;28;20036;-49
2024/03/13 14:24:11;;;;;;;16.25;9.85;;;;;;;;;;5045786;28;20025;-49
2024/03/13 14:26:36;;;;;;;18.75;9.85;;;;;;;;;;5054215;28;20337;-49
2024/03/13 14:29:05;;;;;;;17.08;10.43;;;;;;;;;;5051020;28;20378;-49
2024/03/13 14:31:31;;;;;;;16.05;10.18;;;;;;;;;;5053387;28;20037;-52
2024/03/13 14:33:56;;;;;;;15.27;9.95;;;;;;;;;;5042908;28;20028;-46
2024/03/13 14:36:22;;;;;;;15.18;9.45;;;;;;;;;;5042963;28;20438;-49